Yusho Mermaid 2 — 3ESQ2 — position and weather

sailwx.info

Track history (hours):
 
Tides and Currents Weather Stations Pressure Air Temp Water Temp Dewpoint Dewpoint Depression Visibility Wind Speed Wind Dir Waves Ship Positions

Yusho Mermaid 2

Last reported at 2017-Dec-10 01:30 UTC. Time now 2017-Dec-17 04:22 UTC.
Position N 25°26' E 121°11'.

Length 82 m; draft 5.2 m.

Type: Ship (hazmat cat A). MMSI: 370391000.

Date/timePositionNaut miles runAvg speedWind from/ knotsBaromVisibWave heightAir tempDewpointWater temp
2017-Dec-10 01:30N 25°26' E 121°11'510.3
2017-Dec-10 01:00N 25°21' E 121°08'510.4
2017-Dec-10 00:30N 25°17' E 121°05'611.3
2017-Dec-10 00:00N 25°13' E 121°00'1511.4
2017-Dec-09 22:39N 24°59' E 120°53'311.2
2017-Dec-09 22:22N 24°56' E 120°52'93 3.3
2017-Dec-08 18:01N 23°38' E 119°57'2 3.5
2017-Dec-08 17:30N 23°36' E 119°57'3 5.0
2017-Dec-08 16:59N 23°34' E 119°57'6 6.1
2017-Dec-08 16:05N 23°28' E 119°57'1 6.9
2017-Dec-08 15:56N 23°27' E 119°57'3 7.3
2017-Dec-08 15:29N 23°24' E 119°56'20 5.9
2017-Dec-08 12:10N 23°04' E 119°57'1 3.7
2017-Dec-08 11:59N 23°04' E 119°57'2 4.3
2017-Dec-08 11:28N 23°02' E 119°57'2 3.6
2017-Dec-08 11:00N 22°60' E 119°57'2 3.4
2017-Dec-08 10:30N 22°58' E 119°57'2 4.7
2017-Dec-08 10:00N 22°56' E 119°59'3 6.1
2017-Dec-08 09:30N 22°54' E 120°01'3 6.6
2017-Dec-08 09:00N 22°51' E 120°02'4 7.3
2017-Dec-08 08:30N 22°48' E 120°05'4 8.5
2017-Dec-08 08:00N 22°44' E 120°07'5 9.9
2017-Dec-08 07:30N 22°40' E 120°10'510.0
2017-Dec-08 07:00N 22°37' E 120°15'2 4.6
2017-Dec-08 06:29N 22°37' E 120°17'0 0.0
2017-Dec-08 05:56N 22°37' E 120°17'0 0.0
2017-Dec-08 05:29N 22°37' E 120°17'0 0.0
2017-Dec-08 04:59N 22°37' E 120°17'0 0.0
2017-Dec-08 04:29N 22°37' E 120°17'0 0.0
2017-Dec-08 03:59N 22°37' E 120°17'0 0.0
2017-Dec-08 03:29N 22°37' E 120°17'0 0.0
2017-Dec-08 03:00N 22°37' E 120°17'0 0.0
2017-Dec-08 02:26N 22°37' E 120°17'0 0.0
2017-Dec-08 01:59N 22°37' E 120°17'0 0.0
2017-Dec-08 01:29N 22°37' E 120°17'0 0.0
2017-Dec-08 00:59N 22°37' E 120°17'0 0.0
2017-Dec-08 00:29N 22°37' E 120°17'0 0.0
2017-Dec-07 23:59N 22°37' E 120°17'0 0.0
2017-Dec-07 23:30N 22°37' E 120°17'0 0.0
2017-Dec-07 22:59N 22°37' E 120°17'0 0.0
2017-Dec-07 22:29N 22°37' E 120°17'0 0.0
2017-Dec-07 21:59N 22°37' E 120°17'0 0.0
2017-Dec-07 21:29N 22°37' E 120°17'0 0.0
2017-Dec-07 20:59N 22°37' E 120°17'0 0.0
2017-Dec-07 20:30N 22°37' E 120°17'0 0.0
2017-Dec-07 20:00N 22°37' E 120°17'0 0.0
2017-Dec-07 19:30N 22°37' E 120°17'0 0.0
2017-Dec-07 18:59N 22°37' E 120°17'0 0.0
2017-Dec-07 18:29N 22°37' E 120°17'0 0.0
2017-Dec-07 17:59N 22°37' E 120°17'0 0.0
2017-Dec-07 17:29N 22°37' E 120°17'0 0.0
2017-Dec-07 16:59N 22°37' E 120°17'0 0.0
2017-Dec-07 16:29N 22°37' E 120°17'0 0.0
2017-Dec-07 15:59N 22°37' E 120°17'0 0.0
2017-Dec-07 15:29N 22°37' E 120°17'0 0.0
2017-Dec-07 14:59N 22°37' E 120°17'0 0.0
2017-Dec-07 14:29N 22°37' E 120°17'0 0.0
2017-Dec-07 13:59N 22°37' E 120°17'0 0.0
2017-Dec-07 13:29N 22°37' E 120°17'0 0.0
2017-Dec-07 12:59N 22°37' E 120°17'0 0.0
2017-Dec-07 12:29N 22°37' E 120°17'0 0.0
2017-Dec-07 11:59N 22°37' E 120°17'0 0.0
2017-Dec-07 11:29N 22°37' E 120°17'0 0.0
2017-Dec-07 10:59N 22°37' E 120°17'0 0.0
2017-Dec-07 10:29N 22°37' E 120°17'0 0.0
2017-Dec-07 09:59N 22°37' E 120°17'0 0.0
2017-Dec-07 09:29N 22°37' E 120°17'0 0.0
2017-Dec-07 08:59N 22°37' E 120°17'0 0.0
2017-Dec-07 08:29N 22°37' E 120°17'0 0.0
2017-Dec-07 07:59N 22°37' E 120°17'0 0.0
2017-Dec-07 07:29N 22°37' E 120°17'0 0.0
2017-Dec-07 06:59N 22°37' E 120°17'0 0.0
2017-Dec-07 06:29N 22°37' E 120°17'0 0.0
2017-Dec-07 05:59N 22°37' E 120°17'0 0.0
2017-Dec-07 05:29N 22°37' E 120°17'0 0.0
2017-Dec-07 04:59N 22°37' E 120°17'0 0.0
2017-Dec-07 04:29N 22°37' E 120°17'0 0.0
2017-Dec-07 03:59N 22°37' E 120°17'0 0.0
2017-Dec-07 03:29N 22°37' E 120°17'0 0.0
2017-Dec-07 02:59N 22°37' E 120°17'0 0.0
2017-Dec-07 02:30N 22°37' E 120°17'0 0.0
2017-Dec-07 01:59N 22°37' E 120°17'0 0.0
2017-Dec-07 01:29N 22°37' E 120°17'0 0.0
2017-Dec-07 00:59N 22°37' E 120°17'0 0.0
2017-Dec-07 00:29N 22°37' E 120°17'0 0.0
2017-Dec-07 00:00N 22°37' E 120°17'2 4.4
2017-Dec-06 23:30N 22°37' E 120°15'3 5.8
2017-Dec-06 23:00N 22°37' E 120°12'2 5.0
2017-Dec-06 22:30N 22°39' E 120°10'510.9
2017-Dec-06 22:00N 22°44' E 120°07'510.4
2017-Dec-06 21:30N 22°48' E 120°04'611.0
2017-Dec-06 21:00N 22°53' E 120°01'  
2017-Dec-03 19:07N 24°53' E 120°49'2 9.7
2017-Dec-03 18:53N 24°55' E 120°50'5 9.6
2017-Dec-03 18:20N 24°59' E 120°54'4 9.3
2017-Dec-03 17:57N 25°02' E 120°57'4 8.9
2017-Dec-03 17:28N 25°05' E 120°60'4 8.8
2017-Dec-03 17:00N 25°09' E 121°02'4 8.4
2017-Dec-03 16:30N 25°12' E 121°05'4 8.0
2017-Dec-03 16:00N 25°15' E 121°08'4 8.6
2017-Dec-03 15:30N 25°18' E 121°11'4 7.9
2017-Dec-03 15:00N 25°22' E 121°13'  
2017-Nov-30 12:06N 33°41' E 129°53'1 9.8
2017-Nov-30 12:00N 33°41' E 129°54'510.2
2017-Nov-30 11:29N 33°44' E 129°60'510.1
2017-Nov-30 11:00N 33°46' E 130°04'510.2
2017-Nov-30 10:30N 33°49' E 130°09'510.5
2017-Nov-30 10:00N 33°52' E 130°15'510.7
2017-Nov-30 09:30N 33°55' E 130°20'510.8
2017-Nov-30 09:00N 33°57' E 130°26'510.7
2017-Nov-30 08:30N 33°60' E 130°32'510.8
2017-Nov-30 08:00N 34°02' E 130°38'510.4
2017-Nov-30 07:30N 34°03' E 130°44'5 9.6
2017-Nov-30 07:00N 34°01' E 130°49'4 8.8
2017-Nov-30 06:30N 33°57' E 130°51'2 3.3
2017-Nov-30 06:00N 33°56' E 130°50'0 0.5
2017-Nov-30 05:30N 33°56' E 130°50'0 0.0
2017-Nov-30 05:00N 33°56' E 130°50'0 0.0
2017-Nov-30 04:30N 33°56' E 130°50'0 0.0
2017-Nov-30 04:00N 33°56' E 130°50'0 0.0
2017-Nov-30 03:30N 33°56' E 130°50'0 0.0
2017-Nov-30 03:00N 33°56' E 130°50'0 0.0
2017-Nov-30 02:30N 33°56' E 130°50'0 0.0
2017-Nov-30 02:00N 33°56' E 130°50'0 0.0
2017-Nov-30 01:30N 33°56' E 130°50'  
Track history (hours):
 
Tides and Currents Weather Stations Pressure Air Temp Water Temp Dewpoint Dewpoint Depression Visibility Wind Speed Wind Dir Waves Ship Positions

Yusho Mermaid 2

Last reported at 2017-Dec-10 01:30 UTC. Time now 2017-Dec-17 04:22 UTC.
Position N 25°26' E 121°11'.

Length 82 m; draft 5.2 m.

Type: Ship (hazmat cat A). MMSI: 370391000.

Date/timePositionNaut miles runAvg speedWind from/ knotsBaromVisibWave heightAir tempDewpointWater temp
2017-Dec-10 01:30N 25°26' E 121°11'510.3
2017-Dec-10 01:00N 25°21' E 121°08'510.4
2017-Dec-10 00:30N 25°17' E 121°05'611.3
2017-Dec-10 00:00N 25°13' E 121°00'1511.4
2017-Dec-09 22:39N 24°59' E 120°53'311.2
2017-Dec-09 22:22N 24°56' E 120°52'93 3.3
2017-Dec-08 18:01N 23°38' E 119°57'2 3.5
2017-Dec-08 17:30N 23°36' E 119°57'3 5.0
2017-Dec-08 16:59N 23°34' E 119°57'6 6.1
2017-Dec-08 16:05N 23°28' E 119°57'1 6.9
2017-Dec-08 15:56N 23°27' E 119°57'3 7.3
2017-Dec-08 15:29N 23°24' E 119°56'20 5.9
2017-Dec-08 12:10N 23°04' E 119°57'1 3.7
2017-Dec-08 11:59N 23°04' E 119°57'2 4.3
2017-Dec-08 11:28N 23°02' E 119°57'2 3.6
2017-Dec-08 11:00N 22°60' E 119°57'2 3.4
2017-Dec-08 10:30N 22°58' E 119°57'2 4.7
2017-Dec-08 10:00N 22°56' E 119°59'3 6.1
2017-Dec-08 09:30N 22°54' E 120°01'3 6.6
2017-Dec-08 09:00N 22°51' E 120°02'4 7.3
2017-Dec-08 08:30N 22°48' E 120°05'4 8.5
2017-Dec-08 08:00N 22°44' E 120°07'5 9.9
2017-Dec-08 07:30N 22°40' E 120°10'510.0
2017-Dec-08 07:00N 22°37' E 120°15'2 4.6
2017-Dec-08 06:29N 22°37' E 120°17'0 0.0
2017-Dec-08 05:56N 22°37' E 120°17'0 0.0
2017-Dec-08 05:29N 22°37' E 120°17'0 0.0
2017-Dec-08 04:59N 22°37' E 120°17'0 0.0
2017-Dec-08 04:29N 22°37' E 120°17'0 0.0
2017-Dec-08 03:59N 22°37' E 120°17'0 0.0
2017-Dec-08 03:29N 22°37' E 120°17'0 0.0
2017-Dec-08 03:00N 22°37' E 120°17'0 0.0
2017-Dec-08 02:26N 22°37' E 120°17'0 0.0
2017-Dec-08 01:59N 22°37' E 120°17'0 0.0
2017-Dec-08 01:29N 22°37' E 120°17'0 0.0
2017-Dec-08 00:59N 22°37' E 120°17'0 0.0
2017-Dec-08 00:29N 22°37' E 120°17'0 0.0
2017-Dec-07 23:59N 22°37' E 120°17'0 0.0
2017-Dec-07 23:30N 22°37' E 120°17'0 0.0
2017-Dec-07 22:59N 22°37' E 120°17'0 0.0
2017-Dec-07 22:29N 22°37' E 120°17'0 0.0
2017-Dec-07 21:59N 22°37' E 120°17'0 0.0
2017-Dec-07 21:29N 22°37' E 120°17'0 0.0
2017-Dec-07 20:59N 22°37' E 120°17'0 0.0
2017-Dec-07 20:30N 22°37' E 120°17'0 0.0
2017-Dec-07 20:00N 22°37' E 120°17'0 0.0
2017-Dec-07 19:30N 22°37' E 120°17'0 0.0
2017-Dec-07 18:59N 22°37' E 120°17'0 0.0
2017-Dec-07 18:29N 22°37' E 120°17'0 0.0
2017-Dec-07 17:59N 22°37' E 120°17'0 0.0
2017-Dec-07 17:29N 22°37' E 120°17'0 0.0
2017-Dec-07 16:59N 22°37' E 120°17'0 0.0
2017-Dec-07 16:29N 22°37' E 120°17'0 0.0
2017-Dec-07 15:59N 22°37' E 120°17'0 0.0
2017-Dec-07 15:29N 22°37' E 120°17'0 0.0
2017-Dec-07 14:59N 22°37' E 120°17'0 0.0
2017-Dec-07 14:29N 22°37' E 120°17'0 0.0
2017-Dec-07 13:59N 22°37' E 120°17'0 0.0
2017-Dec-07 13:29N 22°37' E 120°17'0 0.0
2017-Dec-07 12:59N 22°37' E 120°17'0 0.0
2017-Dec-07 12:29N 22°37' E 120°17'0 0.0
2017-Dec-07 11:59N 22°37' E 120°17'0 0.0
2017-Dec-07 11:29N 22°37' E 120°17'0 0.0
2017-Dec-07 10:59N 22°37' E 120°17'0 0.0
2017-Dec-07 10:29N 22°37' E 120°17'0 0.0
2017-Dec-07 09:59N 22°37' E 120°17'0 0.0
2017-Dec-07 09:29N 22°37' E 120°17'0 0.0
2017-Dec-07 08:59N 22°37' E 120°17'0 0.0
2017-Dec-07 08:29N 22°37' E 120°17'0 0.0
2017-Dec-07 07:59N 22°37' E 120°17'0 0.0
2017-Dec-07 07:29N 22°37' E 120°17'0 0.0
2017-Dec-07 06:59N 22°37' E 120°17'0 0.0
2017-Dec-07 06:29N 22°37' E 120°17'0 0.0
2017-Dec-07 05:59N 22°37' E 120°17'0 0.0
2017-Dec-07 05:29N 22°37' E 120°17'0 0.0
2017-Dec-07 04:59N 22°37' E 120°17'0 0.0
2017-Dec-07 04:29N 22°37' E 120°17'0 0.0
2017-Dec-07 03:59N 22°37' E 120°17'0 0.0
2017-Dec-07 03:29N 22°37' E 120°17'0 0.0
2017-Dec-07 02:59N 22°37' E 120°17'0 0.0
2017-Dec-07 02:30N 22°37' E 120°17'0 0.0
2017-Dec-07 01:59N 22°37' E 120°17'0 0.0
2017-Dec-07 01:29N 22°37' E 120°17'0 0.0
2017-Dec-07 00:59N 22°37' E 120°17'0 0.0
2017-Dec-07 00:29N 22°37' E 120°17'0 0.0
2017-Dec-07 00:00N 22°37' E 120°17'2 4.4
2017-Dec-06 23:30N 22°37' E 120°15'3 5.8
2017-Dec-06 23:00N 22°37' E 120°12'2 5.0
2017-Dec-06 22:30N 22°39' E 120°10'510.9
2017-Dec-06 22:00N 22°44' E 120°07'510.4
2017-Dec-06 21:30N 22°48' E 120°04'611.0
2017-Dec-06 21:00N 22°53' E 120°01'  
2017-Dec-03 19:07N 24°53' E 120°49'2 9.7
2017-Dec-03 18:53N 24°55' E 120°50'5 9.6
2017-Dec-03 18:20N 24°59' E 120°54'4 9.3
2017-Dec-03 17:57N 25°02' E 120°57'4 8.9
2017-Dec-03 17:28N 25°05' E 120°60'4 8.8
2017-Dec-03 17:00N 25°09' E 121°02'4 8.4
2017-Dec-03 16:30N 25°12' E 121°05'4 8.0
2017-Dec-03 16:00N 25°15' E 121°08'4 8.6
2017-Dec-03 15:30N 25°18' E 121°11'4 7.9
2017-Dec-03 15:00N 25°22' E 121°13'  
2017-Nov-30 12:06N 33°41' E 129°53'1 9.8
2017-Nov-30 12:00N 33°41' E 129°54'510.2
2017-Nov-30 11:29N 33°44' E 129°60'510.1
2017-Nov-30 11:00N 33°46' E 130°04'510.2
2017-Nov-30 10:30N 33°49' E 130°09'510.5
2017-Nov-30 10:00N 33°52' E 130°15'510.7
2017-Nov-30 09:30N 33°55' E 130°20'510.8
2017-Nov-30 09:00N 33°57' E 130°26'510.7
2017-Nov-30 08:30N 33°60' E 130°32'510.8
2017-Nov-30 08:00N 34°02' E 130°38'510.4
2017-Nov-30 07:30N 34°03' E 130°44'5 9.6
2017-Nov-30 07:00N 34°01' E 130°49'4 8.8
2017-Nov-30 06:30N 33°57' E 130°51'2 3.3
2017-Nov-30 06:00N 33°56' E 130°50'0 0.5
2017-Nov-30 05:30N 33°56' E 130°50'0 0.0
2017-Nov-30 05:00N 33°56' E 130°50'0 0.0
2017-Nov-30 04:30N 33°56' E 130°50'0 0.0
2017-Nov-30 04:00N 33°56' E 130°50'0 0.0
2017-Nov-30 03:30N 33°56' E 130°50'0 0.0
2017-Nov-30 03:00N 33°56' E 130°50'0 0.0
2017-Nov-30 02:30N 33°56' E 130°50'0 0.0
2017-Nov-30 02:00N 33°56' E 130°50'0 0.0
2017-Nov-30 01:30N 33°56' E 130°50'  

Dump ship's entire track history